createdAt,value
2018-12-16T00:04:49.948Z,8.36
2018-12-16T00:09:54.976Z,8.27
2018-12-16T00:14:59.713Z,8.35
2018-12-16T00:20:04.373Z,8.36
2018-12-16T00:25:09.432Z,8.38
2018-12-16T00:35:51.602Z,8.27
2018-12-16T00:40:56.002Z,8.29
2018-12-16T00:46:00.492Z,8.22
2018-12-16T00:51:05.033Z,8.14
2018-12-16T00:56:09.583Z,8.21
2018-12-16T01:01:14.161Z,8.21
2018-12-16T01:06:18.662Z,8.27
2018-12-16T01:11:23.233Z,8.32
2018-12-16T01:16:27.923Z,8.50
2018-12-16T01:26:54.279Z,8.98
2018-12-16T01:31:58.640Z,8.96
2018-12-16T01:37:03.134Z,7.82
2018-12-16T01:42:07.598Z,7.05
2018-12-16T01:47:12.259Z,7.03
2018-12-16T01:52:16.975Z,7.20
2018-12-16T01:57:21.588Z,6.76
2018-12-16T02:02:26.058Z,6.56
2018-12-16T02:07:30.573Z,6.53
2018-12-16T02:12:34.982Z,6.46
2018-12-16T02:17:39.588Z,6.43
2018-12-16T02:22:44.144Z,6.41
2018-12-16T02:27:48.653Z,6.24
2018-12-16T02:32:53.173Z,6.26
2018-12-16T02:37:57.880Z,6.36
2018-12-16T02:43:02.443Z,6.44
2018-12-16T02:48:06.940Z,6.60
2018-12-16T02:53:11.358Z,6.84
2018-12-16T02:58:15.688Z,7.17
2018-12-16T03:03:20.429Z,7.48
2018-12-16T03:08:24.907Z,7.59
2018-12-16T03:13:29.352Z,7.71
2018-12-16T03:18:33.916Z,7.87
2018-12-16T03:23:38.234Z,7.92
2018-12-16T03:28:48.410Z,7.93
2018-12-16T03:33:52.933Z,8.01
2018-12-16T03:38:57.314Z,8.06
2018-12-16T03:44:01.739Z,8.02
2018-12-16T03:49:06.272Z,7.95
2018-12-16T03:54:10.669Z,7.90
2018-12-16T03:59:19.383Z,7.91
2018-12-16T04:04:23.849Z,7.96
2018-12-16T04:09:28.344Z,8.11
2018-12-16T04:14:32.816Z,8.07
2018-12-16T04:19:37.381Z,8.11
2018-12-16T04:24:41.776Z,8.02
2018-12-16T04:29:46.190Z,7.95
2018-12-16T04:34:50.720Z,7.77
2018-12-16T04:39:55.184Z,7.77
2018-12-16T04:44:59.738Z,7.83
2018-12-16T04:50:04.415Z,7.96
2018-12-16T04:55:09.025Z,7.95
2018-12-16T05:00:13.698Z,7.89
2018-12-16T05:05:18.230Z,7.93
2018-12-16T05:10:28.443Z,7.93
2018-12-16T05:15:33.029Z,7.94
2018-12-16T05:20:37.624Z,8.00
2018-12-16T05:25:41.989Z,7.95
2018-12-16T05:30:46.714Z,7.87
2018-12-16T05:35:51.124Z,7.87
2018-12-16T05:40:55.420Z,8.03
2018-12-16T05:45:59.985Z,8.19
2018-12-16T05:51:04.488Z,8.39
2018-12-16T05:56:09.019Z,8.36
2018-12-16T06:01:13.419Z,8.22
2018-12-16T06:06:18.073Z,8.10
2018-12-16T06:11:22.640Z,7.94
2018-12-16T06:16:27.167Z,7.81
2018-12-16T06:21:31.800Z,7.81
2018-12-16T06:26:36.123Z,7.85
2018-12-16T06:31:40.656Z,7.95
2018-12-16T06:36:45.248Z,8.02
2018-12-16T06:41:49.668Z,8.07
2018-12-16T06:46:54.185Z,8.18
2018-12-16T06:51:58.723Z,8.22
2018-12-16T06:57:03.200Z,8.19
2018-12-16T07:02:07.724Z,8.21
2018-12-16T07:07:12.283Z,8.25
2018-12-16T07:12:16.787Z,8.27
2018-12-16T07:17:21.331Z,8.34
2018-12-16T07:22:26.042Z,8.44
2018-12-16T07:27:30.383Z,8.51
2018-12-16T07:32:34.962Z,8.60
2018-12-16T07:37:39.363Z,8.75
2018-12-16T07:42:43.932Z,8.94
2018-12-16T07:47:48.474Z,9.09
2018-12-16T07:52:52.898Z,9.04
2018-12-16T07:57:57.602Z,8.96
2018-12-16T08:03:04.513Z,8.86
2018-12-16T08:08:09.042Z,8.88
2018-12-16T08:13:13.634Z,8.88
2018-12-16T08:18:18.170Z,8.91
2018-12-16T08:23:24.968Z,8.94
2018-12-16T08:28:29.383Z,9.03
2018-12-16T08:33:33.981Z,9.11
2018-12-16T08:38:38.328Z,9.17
2018-12-16T08:43:42.970Z,9.27
2018-12-16T08:48:47.566Z,9.33
2018-12-16T08:53:52.146Z,9.03
2018-12-16T08:58:56.674Z,8.92
2018-12-16T09:04:01.428Z,9.07
2018-12-16T09:09:08.531Z,9.25
2018-12-16T09:14:12.984Z,9.40
2018-12-16T09:19:17.448Z,9.41
2018-12-16T09:24:22.108Z,9.22
2018-12-16T09:29:26.499Z,8.71
2018-12-16T09:34:30.928Z,8.01
2018-12-16T09:39:35.373Z,7.94
2018-12-16T09:44:40.063Z,7.75
2018-12-16T09:49:44.614Z,7.50
2018-12-16T09:54:49.137Z,7.60
2018-12-16T09:59:53.425Z,7.70
2018-12-16T10:04:57.715Z,7.76
2018-12-16T10:10:02.196Z,7.80
2018-12-16T10:15:07.003Z,7.84
2018-12-16T10:20:12.582Z,7.89
2018-12-16T10:25:16.964Z,7.87
2018-12-16T10:30:21.338Z,8.00
2018-12-16T10:35:25.658Z,8.08
2018-12-16T10:40:30.219Z,8.08
2018-12-16T10:45:34.734Z,8.14
2018-12-16T10:50:39.185Z,8.18
2018-12-16T10:55:43.769Z,8.30
2018-12-16T11:00:52.313Z,8.40
2018-12-16T11:05:56.883Z,8.49
2018-12-16T11:11:03.373Z,8.59
2018-12-16T11:16:07.914Z,8.56
2018-12-16T11:21:12.338Z,8.57
2018-12-16T11:26:16.929Z,8.66
2018-12-16T11:31:21.405Z,8.77
2018-12-16T11:36:25.860Z,8.84
2018-12-16T11:42:33.531Z,8.88
2018-12-16T11:47:37.949Z,8.89
2018-12-16T11:52:42.399Z,8.97
2018-12-16T11:57:46.830Z,9.06
2018-12-16T12:02:51.078Z,9.06
2018-12-16T12:24:19.307Z,8.51
2018-12-16T12:29:24.245Z,8.39
2018-12-16T12:34:28.845Z,8.55
2018-12-16T12:39:33.517Z,8.65
2018-12-16T12:44:37.990Z,8.96
2018-12-16T12:49:45.090Z,9.31
2018-12-16T12:54:48.806Z,9.66
2018-12-16T12:59:53.410Z,9.65
2018-12-16T13:04:57.917Z,9.92
2018-12-16T13:10:02.377Z,9.45
2018-12-16T13:15:09.149Z,9.12
2018-12-16T13:20:13.718Z,9.14
2018-12-16T13:25:33.643Z,9.28
2018-12-16T13:30:33.137Z,9.49
2018-12-16T13:35:37.517Z,9.46
2018-12-16T13:40:42.177Z,9.05
2018-12-16T13:45:46.777Z,9.18
2018-12-16T13:50:51.436Z,9.33
2018-12-16T13:55:55.897Z,9.22
2018-12-16T14:01:00.250Z,9.30
2018-12-16T14:06:04.770Z,9.64
2018-12-16T14:11:09.291Z,9.39
2018-12-16T14:16:13.776Z,9.34
2018-12-16T14:21:18.598Z,9.40
2018-12-16T14:26:23.118Z,9.77
2018-12-16T14:31:27.897Z,9.56
2018-12-16T14:36:32.598Z,9.04
2018-12-16T14:41:37.078Z,8.91
2018-12-16T14:46:41.676Z,8.80
2018-12-16T14:51:46.297Z,8.67
2018-12-16T14:56:50.897Z,8.62
2018-12-16T15:01:55.517Z,8.64
2018-12-16T15:07:00.097Z,8.68
2018-12-16T15:12:04.596Z,8.60
2018-12-16T15:17:09.217Z,8.56
2018-12-16T15:22:13.717Z,8.60
2018-12-16T15:27:18.157Z,8.74
2018-12-16T15:32:22.917Z,8.76
2018-12-16T15:37:28.177Z,8.72
2018-12-16T15:42:32.799Z,8.76
2018-12-16T15:53:15.517Z,8.28
2018-12-16T15:58:20.117Z,8.47
2018-12-16T16:03:24.776Z,8.54
2018-12-16T16:08:29.356Z,8.52
2018-12-16T16:13:33.956Z,8.51
2018-12-16T16:18:39.918Z,8.33
2018-12-16T16:23:44.538Z,8.29
2018-12-16T16:28:49.218Z,8.23
2018-12-16T16:33:54.139Z,8.14
2018-12-16T16:38:58.819Z,8.06
2018-12-16T16:44:03.358Z,8.28
2018-12-16T16:49:07.879Z,8.44
2018-12-16T16:54:12.538Z,8.28
2018-12-16T16:59:16.899Z,8.27
2018-12-16T17:04:21.399Z,8.30
2018-12-16T17:15:04.421Z,8.41
2018-12-16T17:20:09.119Z,8.42
2018-12-16T17:25:13.678Z,8.36
2018-12-16T17:30:18.098Z,8.35
2018-12-16T17:35:22.759Z,8.39
2018-12-16T17:40:41.569Z,8.56
2018-12-16T17:51:14.129Z,8.65
2018-12-16T17:56:18.830Z,8.56
2018-12-16T18:01:34.989Z,8.32
2018-12-16T18:06:39.989Z,8.24
2018-12-16T18:11:44.957Z,8.43
2018-12-16T18:16:49.574Z,8.61
2018-12-16T18:21:54.094Z,8.76
2018-12-16T18:26:58.714Z,8.66
2018-12-16T18:32:03.154Z,8.57
2018-12-16T18:37:07.906Z,8.53
2018-12-16T18:42:12.574Z,8.51
2018-12-16T18:47:17.113Z,8.48
2018-12-16T18:52:21.634Z,8.29
2018-12-16T18:57:26.273Z,8.32
2018-12-16T19:02:30.894Z,8.43
2018-12-16T19:07:35.714Z,8.02
2018-12-16T19:12:40.274Z,7.88
2018-12-16T19:17:44.694Z,7.99
2018-12-16T19:22:49.237Z,7.75
2018-12-16T19:27:53.913Z,7.49
2018-12-16T19:32:58.332Z,7.39
2018-12-16T19:38:03.319Z,7.38
2018-12-16T19:43:08.137Z,7.42
2018-12-16T19:48:12.814Z,7.42
2018-12-16T19:53:17.253Z,7.38
2018-12-16T19:58:22.173Z,7.32
2018-12-16T20:03:26.734Z,7.32
2018-12-16T20:08:31.334Z,7.37
2018-12-16T20:13:35.833Z,7.47
2018-12-16T20:18:40.514Z,7.60
2018-12-16T20:23:44.853Z,7.86
2018-12-16T20:28:49.233Z,8.02
2018-12-16T20:33:53.815Z,7.86
2018-12-16T20:38:58.453Z,7.66
2018-12-16T20:44:03.175Z,7.47
2018-12-16T20:49:07.674Z,7.44
2018-12-16T20:54:12.273Z,7.41
2018-12-16T20:59:16.794Z,7.39
2018-12-16T21:04:21.354Z,7.35
2018-12-16T21:09:26.034Z,7.35
2018-12-16T21:14:34.833Z,7.35
2018-12-16T21:19:39.333Z,7.41
2018-12-16T21:24:43.815Z,7.45
2018-12-16T21:29:48.314Z,7.52
2018-12-16T21:34:52.813Z,7.56
2018-12-16T21:39:57.653Z,7.55
2018-12-16T21:45:02.315Z,7.56
2018-12-16T21:50:07.652Z,7.62
2018-12-16T21:55:12.193Z,7.66
2018-12-16T22:00:16.914Z,7.74
2018-12-16T22:05:25.393Z,7.93
2018-12-16T22:10:33.453Z,8.08
2018-12-16T22:15:37.997Z,8.20
2018-12-16T22:20:42.525Z,8.32
2018-12-16T22:25:47.105Z,8.16
2018-12-16T22:30:51.764Z,7.98
2018-12-16T22:35:56.293Z,8.06
2018-12-16T22:41:00.973Z,8.14
2018-12-16T22:46:05.594Z,8.06
2018-12-16T22:51:10.132Z,7.99
2018-12-16T22:56:14.875Z,7.98
2018-12-16T23:01:19.552Z,8.05
2018-12-16T23:06:23.993Z,8.19
2018-12-16T23:11:29.732Z,8.15
2018-12-16T23:16:34.392Z,8.18
2018-12-16T23:21:38.835Z,8.18
2018-12-16T23:26:43.312Z,8.26
2018-12-16T23:31:47.833Z,8.51
2018-12-16T23:36:52.533Z,8.39
2018-12-16T23:41:57.153Z,8.23
2018-12-16T23:47:01.692Z,8.36
2018-12-16T23:52:06.291Z,8.36
2018-12-16T23:57:10.872Z,8.34
